Time,TemperatureF,DewpointF,PressureIn,WindDirection,WindDirectionDegrees,WindSpeedMPH,WindSpeedGustMPH,Humidity,HourlyPrecipIn,Conditions,Clouds,dailyrainin,SoftwareType,DateUTC
2013-02-14 00:02:00,36.0,31.0,29.78,NNE,30,3.0,10.0,83,0.00,,,0.08,,2013-02-14 05:02:00,
2013-02-14 00:11:00,36.0,31.0,29.78,NNE,30,3.0,10.0,83,0.00,,,0.08,,2013-02-14 05:11:00,
2013-02-14 00:22:00,36.0,31.0,29.79,North,8,6.0,14.0,83,0.00,,,0.08,,2013-02-14 05:22:00,
2013-02-14 00:32:00,36.0,31.0,29.80,SE,130,2.0,10.0,83,0.00,,,0.08,,2013-02-14 05:32:00,
2013-02-14 00:42:00,36.0,31.0,29.80,SE,130,2.0,10.0,83,0.00,,,0.08,,2013-02-14 05:42:00,
2013-02-14 00:52:00,37.0,32.0,29.80,NE,45,4.0,9.0,83,0.00,,,0.08,,2013-02-14 05:52:00,
2013-02-14 01:02:00,37.0,32.0,29.82,North,352,5.0,9.0,82,0.00,,,0.08,,2013-02-14 06:02:00,
2013-02-14 01:11:00,37.0,32.0,29.81,NNE,32,6.0,13.0,82,0.00,,,0.08,,2013-02-14 06:11:00,
2013-02-14 01:21:00,37.0,32.0,29.81,NNE,32,6.0,13.0,82,0.00,,,0.08,,2013-02-14 06:21:00,
2013-02-14 01:32:00,36.0,31.0,29.82,NE,41,3.0,9.0,82,0.00,,,0.08,,2013-02-14 06:32:00,
2013-02-14 01:42:00,36.0,31.0,29.82,NE,41,3.0,9.0,82,0.00,,,0.08,,2013-02-14 06:42:00,
2013-02-14 01:52:00,36.0,31.0,29.82,NE,41,3.0,9.0,82,0.00,,,0.08,,2013-02-14 06:52:00,
2013-02-14 02:01:00,36.0,31.0,29.83,NE,49,4.0,9.0,81,0.00,,,0.08,,2013-02-14 07:01:00,
2013-02-14 02:11:00,36.0,31.0,29.84,East,98,3.0,9.0,81,0.00,,,0.08,,2013-02-14 07:11:00,
2013-02-14 02:21:00,36.0,31.0,29.84,East,98,3.0,9.0,81,0.00,,,0.08,,2013-02-14 07:21:00,
2013-02-14 02:32:00,35.0,30.0,29.85,NE,39,2.0,13.0,81,0.00,,,0.08,,2013-02-14 07:32:00,
2013-02-14 02:42:00,35.0,30.0,29.85,NE,39,2.0,13.0,81,0.00,,,0.08,,2013-02-14 07:42:00,
2013-02-14 02:52:00,35.0,29.0,29.85,WSW,257,1.0,7.0,80,0.00,,,0.08,,2013-02-14 07:52:00,
2013-02-14 03:01:00,35.0,29.0,29.86,NE,50,3.0,6.0,80,0.00,,,0.08,,2013-02-14 08:01:00,
2013-02-14 03:11:00,35.0,29.0,29.86,NE,50,3.0,6.0,80,0.00,,,0.08,,2013-02-14 08:11:00,
2013-02-14 03:21:00,35.0,29.0,29.86,NE,50,3.0,6.0,80,0.00,,,0.08,,2013-02-14 08:21:00,
2013-02-14 03:32:00,35.0,29.0,29.86,NE,50,3.0,6.0,80,0.00,,,0.08,,2013-02-14 08:32:00,
2013-02-14 03:43:00,35.0,29.0,29.86,NE,50,3.0,6.0,80,0.00,,,0.08,,2013-02-14 08:43:00,
2013-02-14 03:52:00,35.0,29.0,29.86,NE,44,4.0,9.0,79,0.00,,,0.08,,2013-02-14 08:52:00,
2013-02-14 04:02:00,34.0,28.0,29.87,NE,41,5.0,13.0,79,0.00,,,0.08,,2013-02-14 09:02:00,
2013-02-14 04:11:00,34.0,28.0,29.87,NE,41,5.0,13.0,79,0.00,,,0.08,,2013-02-14 09:11:00,
2013-02-14 04:21:00,34.0,28.0,29.87,NE,41,5.0,13.0,79,0.00,,,0.08,,2013-02-14 09:21:00,
2013-02-14 04:32:00,34.0,28.0,29.87,ENE,59,3.0,9.0,78,0.00,,,0.08,,2013-02-14 09:32:00,
2013-02-14 04:42:00,34.0,28.0,29.87,ENE,59,3.0,9.0,78,0.00,,,0.08,,2013-02-14 09:42:00,
2013-02-14 04:52:00,34.0,28.0,29.88,ENE,64,1.0,8.0,78,0.00,,,0.08,,2013-02-14 09:52:00,
2013-02-14 05:00:00,34.0,28.0,29.88,NE,39,3.0,8.0,78,0.00,,,0.08,,2013-02-14 10:00:00,
2013-02-14 05:02:00,34.0,28.0,29.88,NE,43,5.0,10.0,78,0.00,,,0.08,,2013-02-14 10:02:00,
2013-02-14 05:11:00,34.0,28.0,29.88,NE,39,3.0,8.0,78,0.00,,,0.08,,2013-02-14 10:11:00,
2013-02-14 05:21:00,34.0,28.0,29.88,NE,39,3.0,8.0,78,0.00,,,0.08,,2013-02-14 10:21:00,
2013-02-14 05:31:00,34.0,28.0,29.88,NE,39,3.0,8.0,78,0.00,,,0.08,,2013-02-14 10:31:00,
2013-02-14 05:42:00,34.0,28.0,29.88,NE,39,3.0,8.0,78,0.00,,,0.08,,2013-02-14 10:42:00,
2013-02-14 05:52:00,34.0,28.0,29.88,NE,39,3.0,8.0,78,0.00,,,0.08,,2013-02-14 10:52:00,
2013-02-14 06:11:00,33.0,27.0,29.91,North,0,2.0,9.0,77,0.00,,,0.08,,2013-02-14 11:11:00,
2013-02-14 06:22:00,33.0,27.0,29.91,North,0,2.0,9.0,77,0.00,,,0.08,,2013-02-14 11:22:00,
2013-02-14 06:32:00,32.0,26.0,29.91,ENE,67,1.0,8.0,77,0.00,,,0.08,,2013-02-14 11:32:00,
2013-02-14 06:42:00,32.0,26.0,29.91,ENE,67,1.0,8.0,77,0.00,,,0.08,,2013-02-14 11:42:00,
2013-02-14 06:52:00,32.0,26.0,29.92,NNE,28,3.0,7.0,77,0.00,,,0.08,,2013-02-14 11:52:00,
2013-02-14 07:02:00,32.0,26.0,29.92,NE,44,2.0,8.0,77,0.00,,,0.08,,2013-02-14 12:02:00,
2013-02-14 07:12:00,32.0,26.0,29.92,NE,44,2.0,8.0,77,0.00,,,0.08,,2013-02-14 12:12:00,
2013-02-14 07:22:00,32.0,26.0,29.93,NE,52,2.0,6.0,77,0.00,,,0.08,,2013-02-14 12:22:00,
2013-02-14 07:32:00,32.0,26.0,29.93,ENE,57,1.0,5.0,77,0.00,,,0.07,,2013-02-14 12:32:00,
2013-02-14 07:42:00,32.0,26.0,29.93,ENE,57,1.0,5.0,77,0.00,,,0.07,,2013-02-14 12:42:00,
2013-02-14 07:53:00,32.0,26.0,29.93,ENE,57,1.0,5.0,77,0.00,,,0.07,,2013-02-14 12:53:00,
2013-02-14 08:00:00,33.0,27.0,29.95,NNE,28,0.0,3.0,77,0.00,,,0.07,,2013-02-14 13:00:00,
2013-02-14 08:02:00,32.0,26.0,29.94,NE,43,2.0,5.0,77,0.00,,,0.07,,2013-02-14 13:02:00,
2013-02-14 08:11:00,33.0,27.0,29.95,NNE,28,0.0,3.0,77,0.00,,,0.07,,2013-02-14 13:11:00,
2013-02-14 08:21:00,33.0,27.0,29.95,NNE,28,0.0,3.0,77,0.00,,,0.07,,2013-02-14 13:21:00,
2013-02-14 08:32:00,33.0,27.0,29.95,NNE,28,0.0,3.0,77,0.00,,,0.07,,2013-02-14 13:32:00,
2013-02-14 08:42:00,33.0,27.0,29.95,NNE,28,0.0,3.0,77,0.00,,,0.07,,2013-02-14 13:42:00,
2013-02-14 08:52:00,33.0,27.0,29.95,NNE,28,0.0,3.0,77,0.00,,,0.07,,2013-02-14 13:52:00,
2013-02-14 09:11:00,37.0,28.0,29.99,North,350,1.0,5.0,71,0.00,,,0.07,,2013-02-14 14:11:00,
2013-02-14 09:21:00,37.0,28.0,29.99,North,350,1.0,5.0,71,0.00,,,0.07,,2013-02-14 14:21:00,
2013-02-14 09:32:00,37.0,28.0,29.99,North,350,1.0,5.0,71,0.00,,,0.07,,2013-02-14 14:32:00,
2013-02-14 09:42:00,37.0,28.0,29.99,North,350,1.0,5.0,71,0.00,,,0.07,,2013-02-14 14:42:00,
2013-02-14 09:52:00,37.0,28.0,29.99,North,350,1.0,5.0,71,0.00,,,0.07,,2013-02-14 14:52:00,
2013-02-14 10:02:00,39.0,29.0,30.00,NE,56,3.0,7.0,68,0.00,,,0.07,,2013-02-14 15:02:00,
2013-02-14 10:11:00,40.0,30.0,29.99,ENE,57,2.0,7.0,67,0.00,,,0.05,,2013-02-14 15:11:00,
2013-02-14 10:22:00,40.0,30.0,29.99,ENE,57,2.0,7.0,67,0.00,,,0.05,,2013-02-14 15:22:00,
2013-02-14 10:32:00,41.0,31.0,30.00,North,4,3.0,6.0,66,0.00,,,0.04,,2013-02-14 15:32:00,
2013-02-14 10:42:00,41.0,31.0,30.00,North,4,3.0,6.0,66,0.00,,,0.04,,2013-02-14 15:42:00,
2013-02-14 10:52:00,41.0,31.0,30.00,North,4,3.0,6.0,66,0.00,,,0.04,,2013-02-14 15:52:00,
2013-02-14 11:02:00,41.0,31.0,30.00,North,4,3.0,6.0,66,0.00,,,0.04,,2013-02-14 16:02:00,
2013-02-14 11:11:00,44.0,31.0,29.99,NE,50,4.0,8.0,61,0.00,,,0.04,,2013-02-14 16:11:00,
2013-02-14 11:22:00,44.0,31.0,29.99,NE,50,4.0,8.0,61,0.00,,,0.04,,2013-02-14 16:22:00,
2013-02-14 11:32:00,45.0,32.0,30.00,NNE,13,5.0,9.0,60,0.00,,,0.04,,2013-02-14 16:32:00,
2013-02-14 11:42:00,45.0,32.0,30.00,NNE,13,5.0,9.0,60,0.00,,,0.04,,2013-02-14 16:42:00,
2013-02-14 11:52:00,47.0,33.0,30.00,East,97,1.0,6.0,58,0.00,,,0.04,,2013-02-14 16:52:00,
2013-02-14 12:01:00,47.0,33.0,29.99,North,6,3.0,8.0,57,0.00,,,0.04,,2013-02-14 17:01:00,
2013-02-14 12:11:00,48.0,33.0,29.98,ENE,63,2.0,9.0,55,0.00,,,0.04,,2013-02-14 17:11:00,
2013-02-14 12:21:00,48.0,33.0,29.98,ENE,63,2.0,9.0,55,0.00,,,0.04,,2013-02-14 17:21:00,
2013-02-14 12:32:00,48.0,33.0,29.98,ENE,63,2.0,9.0,55,0.00,,,0.04,,2013-02-14 17:32:00,
2013-02-14 12:42:00,48.0,33.0,29.98,ENE,63,2.0,9.0,55,0.00,,,0.04,,2013-02-14 17:42:00,
2013-02-14 12:52:00,48.0,33.0,29.98,ENE,63,2.0,9.0,55,0.00,,,0.04,,2013-02-14 17:52:00,
2013-02-14 13:01:00,52.0,34.0,29.98,NE,51,3.0,7.0,50,0.00,,,0.03,,2013-02-14 18:01:00,
2013-02-14 13:23:00,53.0,33.0,29.96,ENE,73,3.0,7.0,47,0.00,,,0.03,,2013-02-14 18:23:00,
2013-02-14 13:32:00,54.0,34.0,29.95,WSW,247,3.0,7.0,46,0.00,,,0.03,,2013-02-14 18:32:00,
2013-02-14 13:52:00,54.0,33.0,29.95,West,266,2.0,6.0,44,0.00,,,0.03,,2013-02-14 18:52:00,
2013-02-14 14:00:00,55.0,33.0,29.93,WNW,285,2.0,7.0,43,0.00,,,0.03,,2013-02-14 19:00:00,
2013-02-14 14:02:00,54.0,32.0,29.95,WSW,240,0.0,7.0,43,0.00,,,0.03,,2013-02-14 19:02:00,
2013-02-14 14:11:00,55.0,33.0,29.93,WNW,285,2.0,7.0,43,0.00,,,0.03,,2013-02-14 19:11:00,
2013-02-14 14:21:00,55.0,33.0,29.93,WNW,285,2.0,7.0,43,0.00,,,0.03,,2013-02-14 19:21:00,
2013-02-14 15:11:00,56.0,32.0,29.92,WSW,237,0.0,9.0,40,0.00,,,0.02,,2013-02-14 20:11:00,
2013-02-14 15:22:00,56.0,32.0,29.92,WSW,237,0.0,9.0,40,0.00,,,0.02,,2013-02-14 20:22:00,
2013-02-14 15:32:00,58.0,33.0,29.91,NE,56,1.0,7.0,38,0.00,,,0.02,,2013-02-14 20:32:00,
2013-02-14 15:52:00,59.0,32.0,29.91,NNE,13,4.0,8.0,36,0.00,,,0.02,,2013-02-14 20:52:00,
2013-02-14 16:02:00,58.0,31.0,29.93,SW,232,3.0,7.0,35,0.00,,,0.02,,2013-02-14 21:02:00,
2013-02-14 16:21:00,57.0,31.0,29.93,ENE,68,2.0,7.0,37,0.00,,,0.02,,2013-02-14 21:21:00,
2013-02-14 16:31:00,57.0,30.0,29.92,North,9,1.0,8.0,35,0.00,,,0.02,,2013-02-14 21:31:00,
2013-02-14 16:42:00,57.0,30.0,29.92,North,9,1.0,8.0,35,0.00,,,0.02,,2013-02-14 21:42:00,
2013-02-14 16:52:00,57.0,30.0,29.92,North,9,1.0,8.0,35,0.00,,,0.02,,2013-02-14 21:52:00,
2013-02-14 17:02:00,55.0,28.0,29.92,WSW,255,7.0,13.0,35,0.00,,,0.02,,2013-02-14 22:02:00,
2013-02-14 17:11:00,54.0,28.0,29.93,West,262,0.0,10.0,36,0.00,,,0.01,,2013-02-14 22:11:00,
2013-02-14 17:21:00,54.0,28.0,29.93,West,262,0.0,10.0,36,0.00,,,0.01,,2013-02-14 22:21:00,
2013-02-14 17:32:00,53.0,27.0,29.92,West,275,6.0,9.0,36,0.00,,,0.01,,2013-02-14 22:32:00,
2013-02-14 17:42:00,53.0,27.0,29.92,West,275,6.0,9.0,36,0.00,,,0.01,,2013-02-14 22:42:00,
2013-02-14 17:52:00,52.0,27.0,29.92,WSW,243,1.0,10.0,38,0.00,,,0.01,,2013-02-14 22:52:00,
2013-02-14 18:01:00,52.0,27.0,29.92,WSW,243,1.0,10.0,38,0.00,,,0.01,,2013-02-14 23:01:00,
2013-02-14 18:11:00,52.0,27.0,29.92,WSW,243,1.0,10.0,38,0.00,,,0.01,,2013-02-14 23:11:00,
2013-02-14 18:21:00,50.0,28.0,29.93,SSE,167,3.0,6.0,43,0.00,,,0.01,,2013-02-14 23:21:00,
2013-02-14 18:32:00,49.0,29.0,29.93,South,169,4.0,8.0,45,0.00,,,0.01,,2013-02-14 23:32:00,
2013-02-14 18:42:00,49.0,29.0,29.93,South,169,4.0,8.0,45,0.00,,,0.01,,2013-02-14 23:42:00,
2013-02-14 18:52:00,48.0,28.0,29.93,SSE,161,7.0,9.0,46,0.00,,,0.00,,2013-02-14 23:52:00,
2013-02-14 19:01:00,48.0,28.0,29.93,SSE,161,7.0,9.0,46,0.00,,,0.00,,2013-02-15 00:01:00,
2013-02-14 19:11:00,48.0,28.0,29.93,SSE,161,7.0,9.0,46,0.00,,,0.00,,2013-02-15 00:11:00,
2013-02-14 19:22:00,47.0,28.0,29.94,SSE,160,5.0,8.0,48,0.00,,,0.00,,2013-02-15 00:22:00,
2013-02-14 19:32:00,47.0,28.0,29.95,WSW,256,1.0,6.0,48,0.00,,,0.00,,2013-02-15 00:32:00,
2013-02-14 19:42:00,47.0,28.0,29.95,WSW,256,1.0,6.0,48,0.00,,,0.00,,2013-02-15 00:42:00,
2013-02-14 19:52:00,47.0,28.0,29.95,WSW,256,1.0,6.0,48,0.00,,,0.00,,2013-02-15 00:52:00,
2013-02-14 20:02:00,46.0,29.0,29.96,NNE,31,1.0,5.0,51,0.00,,,0.00,,2013-02-15 01:02:00,
2013-02-14 20:11:00,46.0,29.0,29.96,NNE,31,1.0,5.0,51,0.00,,,0.00,,2013-02-15 01:11:00,
2013-02-14 20:21:00,46.0,29.0,29.95,North,4,5.0,7.0,52,0.00,,,0.00,,2013-02-15 01:21:00,
2013-02-14 20:32:00,46.0,29.0,29.95,North,4,5.0,7.0,52,0.00,,,0.00,,2013-02-15 01:32:00,
2013-02-14 20:41:00,46.0,29.0,29.95,North,4,5.0,7.0,52,0.00,,,0.00,,2013-02-15 01:41:00,
2013-02-14 20:52:00,46.0,29.0,29.95,North,4,5.0,7.0,52,0.00,,,0.00,,2013-02-15 01:52:00,
2013-02-14 21:01:00,44.0,29.0,29.96,NE,44,2.0,8.0,55,0.00,,,0.00,,2013-02-15 02:01:00,
2013-02-14 21:11:00,44.0,29.0,29.96,North,4,3.0,6.0,55,0.00,,,0.00,,2013-02-15 02:11:00,
2013-02-14 21:21:00,44.0,29.0,29.96,North,4,3.0,6.0,55,0.00,,,0.00,,2013-02-15 02:21:00,
2013-02-14 21:32:00,44.0,29.0,29.96,North,350,2.0,6.0,55,0.00,,,0.00,,2013-02-15 02:32:00,
2013-02-14 21:41:00,44.0,29.0,29.96,North,350,2.0,6.0,55,0.00,,,0.00,,2013-02-15 02:41:00,
2013-02-14 21:52:00,44.0,29.0,29.96,North,350,2.0,6.0,55,0.00,,,0.00,,2013-02-15 02:52:00,
2013-02-14 22:02:00,44.0,29.0,29.96,West,273,2.0,5.0,56,0.00,,,0.00,,2013-02-15 03:02:00,
2013-02-14 22:11:00,44.0,29.0,29.96,West,273,2.0,5.0,56,0.00,,,0.00,,2013-02-15 03:11:00,
2013-02-14 22:22:00,44.0,29.0,29.96,West,273,2.0,5.0,56,0.00,,,0.00,,2013-02-15 03:22:00,
2013-02-14 22:32:00,44.0,28.0,29.97,South,181,2.0,3.0,54,0.00,,,0.00,,2013-02-15 03:32:00,
2013-02-14 22:52:00,44.0,28.0,29.98,South,183,2.0,3.0,54,0.00,,,0.00,,2013-02-15 03:52:00,
2013-02-14 23:01:00,44.0,29.0,29.98,SSE,160,5.0,6.0,55,0.00,,,0.00,,2013-02-15 04:01:00,
2013-02-14 23:11:00,43.0,28.0,29.98,SSE,156,5.0,8.0,56,0.00,,,0.00,,2013-02-15 04:11:00,
2013-02-14 23:21:00,43.0,28.0,29.98,SSE,156,5.0,8.0,56,0.00,,,0.00,,2013-02-15 04:21:00,
2013-02-14 23:32:00,42.0,28.0,29.98,South,173,3.0,8.0,58,0.00,,,0.00,,2013-02-15 04:32:00,
2013-02-14 23:52:00,42.0,29.0,29.98,South,179,0.0,5.0,59,0.00,,,0.00,,2013-02-15 04:52:00,